Huvudsida
METAR-TAF:

METAR-TAF

Flygplatser :

Al Jawf, Saudiarabien

latitud: 29-47N, longitud: 040-06E, höjd: 689 m

Aktuellt väderrapport

Denna rapport gjordes för 49 minuter sedan, klockan 14:00 UTC
Vind 5 kt från nord/nordväst
Temperatur 22°C
Fuktighet 14%
Tryck 1023 hPa
Sikt 10 km eller mer
Inga moln under 1 500 m eller inga cumulonimbus

METAR: OESK 231400Z 34005KT CAVOK 22/M07 Q1023

Tid: 17:49 (14:49 UTC)

Väderprognos

Denna rapport gjordes för 3 timmar och 49 minuter sedan, klockan 11:00 UTC
Prognos gäller från 23 kl. 12 UTC till 24 kl. 18 UTC
Vind 12 kt från nord/nordost
Sikt: 7000 m
Blir
från 23 kl. 12 UTC till 23 kl. 16 UTC
Sikt: 4000 m
utbrett stoft, högt damm drev
Blir
från 23 kl. 18 UTC till 23 kl. 20 UTC
Vind 3 kt varierande vindriktning

TAF: OESK 231100Z 2312/2418 03012KT 7000 NSC BECMG 2312/2316 4000 DU BLDU BECMG 2318/2320 VRB03KT

Aktuella väderrapporter och prognoser från 4000 flygplatser (METAR- och TAF-rapporter).

De tillgängliga stationerna syns som gula och röda prickar på kartan.

För musen över prickarna för att se namnen på stationerna.

Klicka sedan för att få väderrapporter och prognoser.

För att ändra kartan: Klicka på de gröna knapparna med ett svart kors på för att zooma in; den gröna knappen med ett streck på för att zooma ut; eller på de gröna pilarna för angränsande kartor.


METAR-TAF: